CheckWX is a tool to help pilots better visualize weather data.  It is not intended as a substitute for an official pre-flight weather briefing.

14:02:14 UTC

I19 METAR
Greene County-Lewis A Jackson Regional Airport
Dayton, Ohio, USA
Current

7 mins ago

KI19 251355Z AUTO 21003KT 4SM DZ SCT004 BKN041 OVC049 14/13 A2985 RMK AO2 P0001 T01350130
Observed
Apr-25 @ 13:55 UTC
Wind
  • 210° at 3 KTS
Visibility
4 SM
Flight Rules
MVFR
Conditions
Drizzle
Cloud Levels
  • Scattered at 400' AGL
  • Broken at 4,100' AGL
  • Overcast at 4,900' AGL
Temperature
14°C / 57°F
Dewpoint
13°C / 55°F
Humidity
94%
Altimeter
29.85" Hg
Pressure
1010.82 hPa
Current Rain
0.01"
Previous

27 mins ago

KI19 251335Z AUTO 17003KT 4SM -DZ SCT010 SCT028 OVC047 13/13 A2985 RMK AO2 P0001 T01320126
Observed
Apr-25 @ 13:35 UTC
Wind
  • 170° at 3 KTS
Visibility
4 SM
Flight Rules
MVFR
Conditions
Light Drizzle
Cloud Levels
  • Scattered at 1,000' AGL
  • Scattered at 2,800' AGL
  • Overcast at 4,700' AGL
Temperature
13°C / 55°F
Dewpoint
13°C / 55°F
Humidity
100%
Altimeter
29.85" Hg
Pressure
1010.82 hPa
Current Rain
0.01"
Previous

47 mins ago

KI19 251315Z AUTO 00000KT 3SM DZ BKN010 BKN028 OVC042 13/12 A2985 RMK AO2 T01280122
Observed
Apr-25 @ 13:15 UTC
Visibility
3 SM
Flight Rules
MVFR
Conditions
Drizzle
Cloud Levels
  • Broken at 1,000' AGL
  • Broken at 2,800' AGL
  • Overcast at 4,200' AGL
Temperature
13°C / 55°F
Dewpoint
12°C / 54°F
Humidity
94%
Altimeter
29.85" Hg
Pressure
1010.82 hPa